Time;durP1;ratioP1;P1;durP2;ratioP2;P2;SDS_P1;SDS_P2;PMS_P1;PMS_P2;Temp;Humidity;BMP_temperature;BMP_pressure;BME280_temperature;BME280_humidity;BME280_pressure;Samples;Min_cycle;Max_cycle;Signal;HPM_P1;HPM_P2
2021/08/13 00:02:09;;;;;;;13.90;9.03;;;20.50;96.00;;;;;;4974440;28;20445;-55
2021/08/13 00:04:37;;;;;;;10.00;9.00;;;20.50;96.20;;;;;;4974922;28;20534;-55
2021/08/13 00:07:04;;;;;;;10.80;9.90;;;20.50;96.30;;;;;;4974679;28;20436;-55
2021/08/13 00:09:32;;;;;;;13.97;12.30;;;20.50;96.30;;;;;;4974636;28;20442;-55
2021/08/13 00:12:00;;;;;;;9.60;8.60;;;20.50;96.50;;;;;;4957310;28;20991;-55
2021/08/13 00:14:26;;;;;;;10.60;9.37;;;20.40;96.50;;;;;;4974554;28;20441;-53
2021/08/13 00:16:53;;;;;;;12.47;9.70;;;20.40;96.50;;;;;;4973899;28;20493;-55
2021/08/13 00:19:19;;;;;;;10.83;9.10;;;20.40;96.50;;;;;;4974365;28;20441;-55
2021/08/13 00:21:48;;;;;;;8.57;7.73;;;20.40;96.50;;;;;;4974377;28;20528;-54
2021/08/13 00:24:15;;;;;;;14.67;8.37;;;20.40;96.60;;;;;;4974326;28;20468;-54
2021/08/13 00:26:43;;;;;;;9.53;8.60;;;20.40;96.60;;;;;;4973917;28;20806;-59
2021/08/13 00:29:09;;;;;;;8.77;7.97;;;20.30;96.60;;;;;;4956914;28;21078;-54
2021/08/13 00:31:37;;;;;;;11.50;9.07;;;20.50;96.80;;;;;;4973919;28;20989;-54
2021/08/13 00:34:04;;;;;;;10.30;8.97;;;20.30;96.70;;;;;;4956922;28;20501;-54
2021/08/13 00:36:31;;;;;;;9.73;8.40;;;20.30;96.70;;;;;;4956459;28;20489;-54
2021/08/13 00:39:02;;;;;;;11.33;9.40;;;20.30;96.80;;;;;;4956957;28;21036;-55
2021/08/13 00:41:30;;;;;;;9.27;8.37;;;20.40;96.90;;;;;;4956913;28;20821;-54
2021/08/13 00:43:59;;;;;;;10.23;8.40;;;20.40;96.90;;;;;;4956643;28;20465;-54
2021/08/13 00:46:26;;;;;;;10.37;8.97;;;20.40;96.90;;;;;;4973762;28;20426;-53
2021/08/13 00:49:06;;;;;;;10.83;9.07;;;20.40;96.90;;;;;;4974005;28;20484;-54
2021/08/13 00:51:42;;;;;;;8.07;7.27;;;20.40;97.30;;;;;;4956507;28;20954;-54
2021/08/13 00:54:12;;;;;;;8.70;7.90;;;20.40;97.00;;;;;;4988732;23;20590;-49
2021/08/13 00:56:44;;;;;;;10.80;8.93;;;20.40;97.00;;;;;;4971363;28;20978;-49
2021/08/13 00:59:29;;;;;;;10.87;9.77;;;20.40;97.00;;;;;;4971572;28;20470;-49
2021/08/13 01:02:09;;;;;;;14.40;9.00;;;20.40;97.10;;;;;;4971716;28;20473;-49
2021/08/13 01:04:36;;;;;;;12.07;9.37;;;20.40;97.10;;;;;;4973501;28;20963;-49
2021/08/13 01:07:07;;;;;;;13.50;9.37;;;20.40;97.10;;;;;;4988025;28;20549;-49
2021/08/13 01:09:34;;;;;;;8.67;7.87;;;20.40;97.20;;;;;;4973543;28;20429;-49
2021/08/13 01:12:03;;;;;;;9.60;8.60;;;20.40;97.20;;;;;;4988422;28;20512;-49
2021/08/13 01:14:44;;;;;;;9.03;8.13;;;20.40;97.20;;;;;;4972042;28;20577;-49
2021/08/13 01:17:16;;;;;;;12.37;8.87;;;20.40;97.20;;;;;;4971412;28;20513;-49
2021/08/13 01:19:56;;;;;;;11.10;9.10;;;20.40;97.10;;;;;;4972025;28;20454;-49
2021/08/13 01:22:28;;;;;;;8.90;7.57;;;20.40;97.50;;;;;;4988201;28;20465;-49
2021/08/13 01:24:57;;;;;;;13.27;8.97;;;20.40;97.20;;;;;;4973078;28;20464;-49
2021/08/13 01:27:29;;;;;;;9.93;8.80;;;20.40;97.30;;;;;;4971684;28;20450;-49
2021/08/13 01:30:02;;;;;;;8.83;8.03;;;20.40;97.50;;;;;;4971879;28;20450;-49
2021/08/13 01:32:46;;;;;;;8.83;8.00;;;20.40;97.50;;;;;;4987826;28;20458;-49
2021/08/13 01:35:19;;;;;;;10.27;8.70;;;20.40;97.60;;;;;;4988203;28;20451;-49
2021/08/13 01:37:51;;;;;;;8.47;7.63;;;20.40;97.60;;;;;;4971276;28;20826;-49
2021/08/13 01:40:22;;;;;;;9.80;8.80;;;20.40;97.50;;;;;;4973152;28;20431;-49
2021/08/13 01:42:50;;;;;;;9.07;8.20;;;20.40;97.50;;;;;;4971693;28;20566;-49
2021/08/13 01:45:22;;;;;;;8.33;7.43;;;20.40;97.80;;;;;;4971712;28;20495;-49
2021/08/13 01:47:53;;;;;;;9.67;8.70;;;20.40;97.60;;;;;;4972422;28;20463;-49
2021/08/13 01:50:20;;;;;;;9.73;8.47;;;20.40;97.70;;;;;;4971627;28;20868;-49
2021/08/13 01:52:48;;;;;;;15.53;8.87;;;20.30;97.70;;;;;;4987485;28;20483;-49
2021/08/13 01:55:16;;;;;;;12.00;8.63;;;20.30;97.70;;;;;;4972873;28;21078;-49
2021/08/13 01:57:44;;;;;;;9.53;8.50;;;20.30;97.70;;;;;;4987440;28;21097;-49
2021/08/13 02:00:15;;;;;;;10.60;8.53;;;20.30;97.80;;;;;;4977419;28;20445;-49
2021/08/13 02:02:47;;;;;;;10.30;9.00;;;20.30;97.90;;;;;;4978006;28;20492;-49
2021/08/13 02:05:22;;;;;;;11.87;7.90;;;20.30;97.90;;;;;;4977917;28;20893;-49
2021/08/13 02:07:51;;;;;;;10.40;9.03;;;20.20;98.00;;;;;;4977531;28;20458;-49
2021/08/13 02:10:19;;;;;;;9.13;7.97;;;20.20;98.10;;;;;;4977939;28;20458;-49
2021/08/13 02:12:46;;;;;;;11.77;8.87;;;20.20;98.20;;;;;;4994204;28;20485;-49
2021/08/13 02:15:13;;;;;;;10.40;9.30;;;20.20;98.30;;;;;;4979190;28;20434;-49
2021/08/13 02:17:47;;;;;;;10.17;9.17;;;20.20;98.40;;;;;;4977551;28;20489;-49
2021/08/13 02:20:16;;;;;;;12.23;9.80;;;20.20;98.40;;;;;;4977800;28;20979;-49
2021/08/13 02:22:46;;;;;;;9.90;9.00;;;20.10;98.50;;;;;;4977974;28;20569;-50
2021/08/13 02:25:14;;;;;;;8.40;7.70;;;20.10;98.50;;;;;;4977722;28;20462;-49
2021/08/13 02:27:41;;;;;;;12.13;9.47;;;20.10;98.50;;;;;;4977312;28;20505;-49
2021/08/13 02:30:13;;;;;;;10.77;9.67;;;20.10;98.60;;;;;;4977768;28;20580;-50
2021/08/13 02:32:41;;;;;;;11.90;9.10;;;20.10;98.60;;;;;;4977647;28;20485;-50
2021/08/13 02:35:11;;;;;;;10.03;8.17;;;20.10;98.60;;;;;;4979167;28;20445;-50
2021/08/13 02:37:42;;;;;;;9.63;8.63;;;20.10;98.70;;;;;;4977235;28;20905;-50
2021/08/13 02:40:13;;;;;;;10.80;9.03;;;20.10;98.70;;;;;;4977609;28;20544;-50
2021/08/13 02:42:48;;;;;;;9.43;8.53;;;20.10;98.80;;;;;;4977684;28;20900;-50
2021/08/13 02:45:17;;;;;;;9.47;8.57;;;20.10;98.80;;;;;;4994017;28;20521;-50
2021/08/13 02:47:45;;;;;;;10.07;9.07;;;20.10;98.70;;;;;;4993273;28;20808;-50
2021/08/13 02:50:13;;;;;;;9.87;8.90;;;20.20;98.70;;;;;;4977595;28;20550;-50
2021/08/13 02:52:45;;;;;;;9.07;8.20;;;20.20;98.80;;;;;;4979067;28;20492;-50
2021/08/13 02:55:18;;;;;;;14.70;9.13;;;20.20;98.80;;;;;;4993923;28;20461;-50
2021/08/13 02:57:48;;;;;;;9.30;8.40;;;20.20;98.70;;;;;;4993383;28;20567;-50
2021/08/13 03:00:16;;;;;;;12.67;9.40;;;20.20;98.70;;;;;;4977437;28;20486;-50
2021/08/13 03:02:48;;;;;;;13.30;12.00;;;20.20;98.80;;;;;;4977424;28;20496;-50
2021/08/13 03:05:17;;;;;;;10.07;9.17;;;20.10;98.80;;;;;;4977581;28;20445;-50
2021/08/13 03:07:44;;;;;;;11.50;9.20;;;20.10;98.90;;;;;;4993386;28;20487;-50
2021/08/13 03:10:12;;;;;;;11.17;8.90;;;20.10;99.00;;;;;;4975216;28;20970;-50
2021/08/13 03:12:41;;;;;;;8.47;7.67;;;20.10;99.00;;;;;;4974245;28;20492;-50
2021/08/13 03:15:09;;;;;;;12.60;9.30;;;20.00;99.00;;;;;;4974240;28;20501;-50
2021/08/13 03:17:41;;;;;;;10.13;9.07;;;20.00;99.00;;;;;;4975126;28;20490;-50
2021/08/13 03:20:08;;;;;;;12.60;9.03;;;20.00;99.00;;;;;;4990406;28;20453;-50
2021/08/13 03:22:43;;;;;;;10.70;9.20;;;20.00;99.10;;;;;;4974188;28;20524;-50
2021/08/13 03:25:11;;;;;;;11.10;9.07;;;20.00;99.00;;;;;;4974179;28;20460;-50
2021/08/13 03:27:42;;;;;;;10.03;9.03;;;20.00;99.10;;;;;;4990038;28;20454;-50
2021/08/13 03:30:10;;;;;;;10.03;9.03;;;20.00;99.00;;;;;;4989993;28;20462;-50
2021/08/13 03:32:39;;;;;;;9.30;8.50;;;20.00;98.90;;;;;;4989999;28;20471;-50
2021/08/13 03:35:08;;;;;;;10.37;9.37;;;20.10;99.00;;;;;;4990049;28;20450;-50
2021/08/13 03:37:35;;;;;;;11.73;9.60;;;20.10;98.90;;;;;;4973681;28;20896;-50
2021/08/13 03:40:02;;;;;;;10.10;9.10;;;20.10;98.80;;;;;;4989966;28;20461;-50
2021/08/13 03:42:30;;;;;;;10.90;9.23;;;20.10;98.70;;;;;;4973877;28;20987;-50
2021/08/13 03:44:58;;;;;;;11.67;9.47;;;20.10;98.60;;;;;;4989891;28;20454;-50
2021/08/13 03:47:25;;;;;;;10.00;9.00;;;20.10;98.50;;;;;;4974789;28;20767;-50
2021/08/13 03:49:51;;;;;;;9.17;8.37;;;20.20;98.50;;;;;;4989790;28;20509;-50
2021/08/13 03:52:18;;;;;;;13.73;10.70;;;20.20;98.40;;;;;;4989619;28;20542;-50
2021/08/13 03:54:48;;;;;;;10.40;9.33;;;20.20;98.30;;;;;;4989774;28;20557;-50
2021/08/13 03:57:15;;;;;;;9.43;8.63;;;20.20;98.30;;;;;;4974542;28;20485;-50
2021/08/13 03:59:42;;;;;;;9.60;8.60;;;20.20;98.10;;;;;;4989633;28;20509;-50
2021/08/13 04:02:09;;;;;;;9.80;8.80;;;20.20;98.10;;;;;;4973423;28;20554;-50
2021/08/13 04:04:38;;;;;;;9.47;8.67;;;20.30;98.10;;;;;;4973454;28;21044;-50
2021/08/13 04:07:04;;;;;;;10.17;9.13;;;20.30;98.10;;;;;;4974232;28;20441;-50
2021/08/13 04:09:31;;;;;;;10.83;9.07;;;20.30;98.10;;;;;;4973175;28;20451;-50
2021/08/13 04:11:58;;;;;;;10.50;9.53;;;20.30;98.00;;;;;;4989422;28;20465;-50
2021/08/13 04:14:28;;;;;;;10.00;9.03;;;20.40;98.00;;;;;;4989018;28;20481;-50
2021/08/13 04:16:56;;;;;;;10.67;9.50;;;20.40;98.00;;;;;;4988704;28;20529;-50
2021/08/13 04:19:25;;;;;;;11.00;9.87;;;20.50;98.00;;;;;;4989260;28;20455;-51
2021/08/13 04:21:53;;;;;;;10.00;9.00;;;20.50;98.00;;;;;;4972596;28;20451;-50
2021/08/13 04:24:19;;;;;;;11.97;10.77;;;20.50;97.90;;;;;;4972761;28;20466;-50
2021/08/13 04:26:46;;;;;;;16.47;10.00;;;20.60;97.90;;;;;;4988562;28;20486;-50
2021/08/13 04:29:13;;;;;;;10.60;9.70;;;20.60;97.90;;;;;;4988880;28;20450;-51
2021/08/13 04:31:40;;;;;;;10.83;9.90;;;20.60;97.90;;;;;;4974086;28;20464;-50
2021/08/13 04:34:08;;;;;;;10.47;9.40;;;20.60;97.80;;;;;;4972362;28;21040;-50
2021/08/13 04:36:37;;;;;;;10.90;9.90;;;20.60;97.80;;;;;;4988194;28;20454;-50
2021/08/13 04:39:04;;;;;;;10.60;9.47;;;20.60;97.80;;;;;;4972709;28;21025;-51
2021/08/13 04:41:36;;;;;;;10.13;9.10;;;20.60;97.80;;;;;;4972471;28;20582;-51
2021/08/13 04:44:04;;;;;;;10.37;9.27;;;20.70;97.80;;;;;;4972355;28;20489;-51
2021/08/13 04:46:31;;;;;;;11.40;10.20;;;20.70;97.80;;;;;;4987866;28;21031;-51
2021/08/13 04:48:57;;;;;;;11.37;10.27;;;20.70;97.80;;;;;;4973581;28;20525;-51
2021/08/13 04:51:25;;;;;;;12.13;10.93;;;20.70;97.70;;;;;;4988666;28;20546;-51
2021/08/13 04:53:53;;;;;;;10.47;9.30;;;20.70;97.80;;;;;;4971884;28;20493;-51
2021/08/13 04:56:19;;;;;;;11.90;9.60;;;20.70;97.80;;;;;;4987992;28;20450;-51
2021/08/13 04:58:47;;;;;;;10.53;8.93;;;20.90;97.90;;;;;;4988092;28;20902;-49
2021/08/13 05:01:26;;;;;;;12.10;9.67;;;20.70;97.80;;;;;;4972505;28;21091;-51
2021/08/13 05:03:52;;;;;;;9.50;8.53;;;20.80;97.90;;;;;;4971909;28;20567;-51
2021/08/13 05:06:20;;;;;;;16.77;10.43;;;20.80;97.90;;;;;;4971913;28;20469;-51
2021/08/13 05:08:47;;;;;;;9.97;8.97;;;20.80;97.90;;;;;;4987793;28;20446;-52
2021/08/13 05:11:15;;;;;;;11.63;10.53;;;20.80;97.90;;;;;;4973343;28;20482;-51
2021/08/13 05:13:43;;;;;;;11.53;10.33;;;20.80;98.20;;;;;;4971567;28;20534;-51
2021/08/13 05:16:10;;;;;;;10.50;8.83;;;20.90;97.90;;;;;;4972476;28;20809;-52
2021/08/13 05:18:37;;;;;;;13.80;10.00;;;20.90;98.00;;;;;;4987481;28;20532;-51
2021/08/13 05:21:06;;;;;;;12.47;11.17;;;20.90;98.00;;;;;;4971742;28;20456;-51
2021/08/13 05:23:32;;;;;;;10.87;9.77;;;20.90;98.00;;;;;;4987349;28;20481;-51
2021/08/13 05:25:59;;;;;;;12.03;9.73;;;20.90;97.90;;;;;;4986958;28;20479;-51
2021/08/13 05:28:29;;;;;;;11.80;10.07;;;20.90;97.90;;;;;;4970895;28;20447;-52
2021/08/13 05:30:56;;;;;;;16.33;10.37;;;20.90;97.90;;;;;;4971161;28;20486;-51
2021/08/13 05:33:24;;;;;;;15.40;11.27;;;21.00;97.90;;;;;;4970313;28;20567;-51
2021/08/13 05:35:50;;;;;;;12.13;10.87;;;21.00;98.00;;;;;;4970622;28;20497;-51
2021/08/13 05:38:17;;;;;;;13.57;10.00;;;21.00;98.00;;;;;;4986184;28;20516;-51
2021/08/13 05:40:44;;;;;;;12.93;10.50;;;21.00;97.90;;;;;;4972390;28;20466;-50
2021/08/13 05:43:12;;;;;;;10.30;9.30;;;21.10;97.90;;;;;;4986705;28;20497;-53
2021/08/13 05:45:42;;;;;;;14.50;9.73;;;21.10;97.90;;;;;;4971280;28;20815;-50
2021/08/13 05:48:09;;;;;;;11.70;10.63;;;21.10;97.80;;;;;;4970568;28;20442;-51
2021/08/13 05:50:37;;;;;;;12.23;10.93;;;21.10;97.80;;;;;;4971144;28;20487;-51
2021/08/13 05:53:04;;;;;;;11.90;10.30;;;21.10;97.80;;;;;;4986585;28;20483;-49
2021/08/13 05:55:36;;;;;;;11.30;10.20;;;21.10;97.80;;;;;;4986470;28;20450;-52
2021/08/13 05:58:02;;;;;;;13.90;11.37;;;21.10;97.80;;;;;;4986242;28;20470;-50
2021/08/13 06:00:29;;;;;;;13.53;12.10;;;21.00;97.80;;;;;;4987046;28;20456;-50
2021/08/13 06:03:05;;;;;;;12.30;11.10;;;21.00;97.90;;;;;;4970379;28;20482;-50
2021/08/13 06:05:36;;;;;;;13.53;11.27;;;21.10;98.00;;;;;;4987011;28;20452;-50
2021/08/13 06:08:05;;;;;;;12.17;11.07;;;21.20;98.00;;;;;;4986732;28;20480;-50
2021/08/13 06:10:31;;;;;;;16.67;10.63;;;21.30;97.90;;;;;;4986735;28;20578;-50
2021/08/13 06:12:59;;;;;;;10.83;9.83;;;21.50;97.70;;;;;;4970706;28;20479;-51
2021/08/13 06:15:26;;;;;;;11.77;10.60;;;21.60;97.50;;;;;;4970907;28;20467;-51
2021/08/13 06:17:53;;;;;;;11.03;9.60;;;21.80;97.40;;;;;;4986735;28;20560;-50
2021/08/13 06:20:25;;;;;;;14.20;10.63;;;21.90;97.30;;;;;;4970995;28;20452;-51
2021/08/13 06:23:06;;;;;;;13.33;10.60;;;22.00;97.10;;;;;;4986886;28;20574;-51
2021/08/13 06:25:33;;;;;;;13.13;10.23;;;22.10;97.00;;;;;;4971671;28;20977;-51
2021/08/13 06:27:59;;;;;;;10.47;9.37;;;22.20;96.90;;;;;;4971467;28;20534;-50
2021/08/13 06:30:26;;;;;;;13.00;10.80;;;22.30;96.70;;;;;;4972004;28;20436;-50
2021/08/13 06:32:53;;;;;;;11.77;10.67;;;22.40;96.60;;;;;;4986282;28;20505;-51
2021/08/13 06:35:23;;;;;;;11.10;9.97;;;22.50;96.50;;;;;;4986681;28;20966;-49
2021/08/13 06:37:52;;;;;;;15.30;10.50;;;22.60;96.40;;;;;;4985983;28;20580;-50
2021/08/13 06:40:19;;;;;;;15.57;10.70;;;22.60;96.30;;;;;;4987198;28;20550;-50
2021/08/13 06:42:47;;;;;;;13.80;10.80;;;22.70;96.20;;;;;;4970018;28;20477;-50
2021/08/13 06:45:17;;;;;;;11.97;10.60;;;22.80;96.00;;;;;;4972142;28;20558;-50
2021/08/13 06:47:44;;;;;;;14.50;9.87;;;22.90;96.00;;;;;;4973781;28;20976;-50
2021/08/13 06:50:12;;;;;;;14.50;11.60;;;23.00;95.90;;;;;;4974101;28;20549;-50
2021/08/13 06:55:15;;;;;;;14.60;10.10;;;23.10;95.70;;;;;;4936287;29;20855;-49
2021/08/13 06:57:43;;;;;;;13.13;11.83;;;23.20;95.60;;;;;;4953469;29;20479;-49
2021/08/13 07:00:12;;;;;;;14.53;11.90;;;23.30;95.50;;;;;;4954001;29;20507;-50
2021/08/13 07:02:39;;;;;;;14.37;10.23;;;23.30;95.30;;;;;;4938006;29;20452;-50
2021/08/13 07:05:08;;;;;;;14.80;12.10;;;23.40;95.30;;;;;;4934977;29;20511;-49
2021/08/13 07:07:35;;;;;;;19.10;11.07;;;23.40;95.30;;;;;;4934473;29;20893;-49
2021/08/13 07:10:05;;;;;;;15.47;12.03;;;23.40;95.20;;;;;;4934904;29;20459;-50
2021/08/13 07:12:34;;;;;;;13.37;12.07;;;23.50;95.10;;;;;;4934695;29;20521;-49
2021/08/13 07:15:01;;;;;;;17.47;11.50;;;23.60;95.10;;;;;;4934216;29;20470;-50
2021/08/13 07:17:30;;;;;;;16.40;11.47;;;23.60;95.10;;;;;;4933606;29;20573;-51
2021/08/13 07:19:57;;;;;;;11.83;10.63;;;23.60;95.40;;;;;;4935699;29;20812;-49
2021/08/13 07:22:23;;;;;;;13.97;12.50;;;23.70;95.00;;;;;;4934135;29;20459;-50
2021/08/13 07:24:50;;;;;;;13.37;10.37;;;23.70;94.90;;;;;;4934172;29;20465;-49
2021/08/13 07:27:17;;;;;;;13.83;11.53;;;23.70;94.90;;;;;;4934038;29;20492;-50
2021/08/13 07:29:45;;;;;;;16.50;11.90;;;23.70;94.80;;;;;;4933914;29;20468;-50
2021/08/13 07:32:12;;;;;;;25.30;10.30;;;23.80;94.90;;;;;;4933663;29;20535;-51
2021/08/13 07:34:39;;;;;;;12.63;11.10;;;23.80;94.90;;;;;;4933856;29;20822;-49
2021/08/13 07:37:06;;;;;;;11.67;9.60;;;23.90;94.90;;;;;;4933768;29;20468;-50
2021/08/13 07:39:33;;;;;;;13.33;10.87;;;23.90;94.80;;;;;;4933833;29;20569;-49
2021/08/13 07:42:00;;;;;;;12.07;10.60;;;23.90;94.70;;;;;;4935440;29;20433;-48
2021/08/13 07:44:27;;;;;;;15.87;10.13;;;23.90;94.70;;;;;;4935038;29;20981;-50
2021/08/13 07:46:55;;;;;;;10.73;9.63;;;24.00;94.70;;;;;;4933435;29;20535;-50
2021/08/13 07:49:21;;;;;;;15.60;11.20;;;24.10;94.70;;;;;;4933445;29;20520;-49
2021/08/13 07:51:48;;;;;;;10.27;9.27;;;24.10;94.60;;;;;;4933876;29;20551;-50
2021/08/13 07:54:16;;;;;;;16.10;10.13;;;24.20;94.50;;;;;;4933670;29;20546;-50
2021/08/13 07:56:43;;;;;;;13.63;9.67;;;24.20;94.50;;;;;;4932477;29;20482;-49
2021/08/13 07:59:10;;;;;;;10.70;9.80;;;24.30;94.70;;;;;;4933572;29;20545;-49
2021/08/13 08:01:37;;;;;;;9.50;8.60;;;24.30;94.30;;;;;;4935310;29;20470;-49
2021/08/13 08:04:05;;;;;;;10.50;9.50;;;24.30;94.00;;;;;;4934963;29;20466;-49
2021/08/13 08:06:32;;;;;;;9.33;8.43;;;24.40;94.00;;;;;;4934553;29;20475;-50
2021/08/13 08:08:58;;;;;;;11.80;10.70;;;24.40;93.90;;;;;;4934865;29;20514;-49
2021/08/13 08:11:25;;;;;;;9.70;8.70;;;24.40;93.80;;;;;;4934912;29;20740;-50
2021/08/13 08:13:52;;;;;;;10.50;9.20;;;24.50;93.70;;;;;;4935094;29;20529;-49
2021/08/13 08:16:18;;;;;;;10.63;9.53;;;24.50;93.20;;;;;;4934588;29;20461;-49
2021/08/13 08:18:45;;;;;;;10.73;8.70;;;24.60;93.30;;;;;;4935199;29;20802;-48
2021/08/13 08:21:13;;;;;;;15.40;9.40;;;24.60;93.30;;;;;;4934714;29;20447;-50
2021/08/13 08:23:39;;;;;;;13.20;8.73;;;24.70;93.40;;;;;;4934527;29;20967;-52
2021/08/13 08:26:06;;;;;;;12.93;8.40;;;24.70;93.40;;;;;;4934850;29;20440;-49
2021/08/13 08:28:32;;;;;;;9.30;8.37;;;24.70;93.20;;;;;;4935217;29;20444;-49
2021/08/13 08:30:59;;;;;;;10.13;9.03;;;24.80;93.20;;;;;;4934915;29;20447;-49
2021/08/13 08:33:26;;;;;;;10.20;8.47;;;24.80;93.30;;;;;;4934747;29;20490;-49
2021/08/13 08:35:52;;;;;;;9.20;7.70;;;24.90;93.30;;;;;;4933628;29;20806;-49
2021/08/13 08:38:20;;;;;;;8.70;7.90;;;24.90;93.20;;;;;;4933908;29;20483;-49
2021/08/13 08:40:48;;;;;;;12.00;8.83;;;24.90;92.80;;;;;;4934361;29;20462;-50
2021/08/13 08:43:14;;;;;;;9.90;8.90;;;25.00;92.80;;;;;;4934406;29;20503;-50
2021/08/13 08:45:41;;;;;;;10.03;8.63;;;25.00;92.70;;;;;;4934463;29;21007;-50
2021/08/13 08:48:10;;;;;;;11.70;8.30;;;25.00;92.60;;;;;;4933724;29;20843;-49
2021/08/13 08:50:39;;;;;;;12.50;9.00;;;25.10;92.70;;;;;;4934408;29;20451;-50
2021/08/13 08:53:14;;;;;;;11.90;10.13;;;25.20;92.70;;;;;;4933772;29;21126;-49
2021/08/13 08:55:43;;;;;;;11.73;9.30;;;25.20;92.50;;;;;;4935192;29;20439;-49
2021/08/13 08:58:10;;;;;;;12.20;8.00;;;25.30;92.40;;;;;;4934288;29;20487;-49
2021/08/13 09:00:37;;;;;;;9.57;8.63;;;25.30;92.20;;;;;;4933520;29;20440;-49
2021/08/13 09:03:05;;;;;;;11.53;8.80;;;25.40;92.50;;;;;;4933823;29;20440;-48
2021/08/13 09:05:31;;;;;;;11.93;8.87;;;25.40;92.50;;;;;;4933466;29;20451;-49
2021/08/13 09:07:58;;;;;;;9.60;8.60;;;25.40;92.50;;;;;;4933075;29;20546;-50
2021/08/13 09:10:24;;;;;;;8.17;7.43;;;25.50;92.50;;;;;;4933764;29;20675;-49
2021/08/13 09:12:53;;;;;;;9.70;8.80;;;25.50;92.30;;;;;;4933711;29;20606;-50
2021/08/13 09:15:31;;;;;;;10.47;8.23;;;25.60;92.10;;;;;;4933707;29;20445;-49
2021/08/13 09:18:14;;;;;;;12.67;9.27;;;25.70;91.90;;;;;;4933092;29;20786;-49
2021/08/13 09:20:42;;;;;;;10.70;8.27;;;25.70;91.70;;;;;;4933778;29;20659;-49
2021/08/13 09:23:09;;;;;;;13.57;7.20;;;25.70;91.80;;;;;;4933607;29;20460;-51
2021/08/13 09:25:36;;;;;;;11.73;7.50;;;25.80;92.00;;;;;;4933549;29;20516;-49
2021/08/13 09:28:41;;;;;;;8.63;7.80;;;25.90;91.60;;;;;;4933168;29;20451;-49
2021/08/13 09:31:11;;;;;;;8.60;7.70;;;26.00;91.30;;;;;;4932361;29;20916;-51
2021/08/13 09:33:38;;;;;;;9.03;7.43;;;26.00;91.20;;;;;;4931764;29;20578;-49
2021/08/13 09:36:07;;;;;;;8.47;7.67;;;26.10;91.00;;;;;;4933300;29;20436;-54
2021/08/13 09:38:33;;;;;;;7.00;6.30;;;26.20;90.60;;;;;;4933796;29;20477;-51
2021/08/13 09:41:07;;;;;;;7.03;6.43;;;26.20;90.50;;;;;;4933016;29;20450;-51
2021/08/13 09:43:52;;;;;;;8.80;6.50;;;26.30;89.50;;;;;;4933285;29;20464;-51
2021/08/13 09:46:19;;;;;;;9.23;6.70;;;26.50;88.30;;;;;;4931527;29;20499;-49
2021/08/13 09:48:46;;;;;;;8.97;7.47;;;26.50;88.10;;;;;;4932966;29;20754;-51
2021/08/13 09:51:28;;;;;;;7.37;6.73;;;26.50;87.30;;;;;;4932960;29;20942;-49
2021/08/13 09:53:58;;;;;;;7.23;6.43;;;26.60;87.00;;;;;;4931817;29;20475;-50
2021/08/13 09:56:29;;;;;;;9.33;8.23;;;26.60;87.20;;;;;;4931435;29;20911;-50
2021/08/13 09:59:19;;;;;;;6.67;6.07;;;26.60;87.20;;;;;;4931960;29;20490;-50
2021/08/13 10:01:47;;;;;;;8.00;6.30;;;26.60;85.80;;;;;;4933458;29;20462;-52
2021/08/13 10:04:15;;;;;;;13.03;7.17;;;26.60;85.80;;;;;;4933002;29;20828;-51
2021/08/13 10:06:43;;;;;;;8.87;7.20;;;26.70;85.70;;;;;;4930925;29;20455;-50
2021/08/13 10:09:22;;;;;;;9.47;6.37;;;26.80;85.50;;;;;;4932776;29;20551;-50
2021/08/13 10:11:57;;;;;;;7.10;6.40;;;26.80;84.50;;;;;;4932507;29;20446;-49
2021/08/13 10:14:33;;;;;;;9.77;5.97;;;26.80;85.00;;;;;;4931386;29;20860;-50
2021/08/13 10:17:11;;;;;;;7.47;6.33;;;26.90;85.30;;;;;;4930961;29;20474;-50
2021/08/13 10:19:39;;;;;;;10.90;6.50;;;27.10;85.00;;;;;;4932566;29;20498;-50
2021/08/13 10:22:07;;;;;;;7.90;6.90;;;27.00;85.20;;;;;;4935306;29;20455;-49
2021/08/13 10:24:35;;;;;;;8.37;7.00;;;27.00;85.00;;;;;;4935498;29;20523;-50
2021/08/13 10:27:02;;;;;;;8.20;7.20;;;27.10;84.70;;;;;;4934903;29;20459;-50
2021/08/13 10:29:31;;;;;;;9.73;7.40;;;27.20;84.30;;;;;;4935530;29;20511;-49
2021/08/13 10:31:59;;;;;;;9.80;6.67;;;27.30;84.80;;;;;;4935587;29;20455;-49
2021/08/13 10:34:27;;;;;;;8.87;6.40;;;27.40;83.10;;;;;;4934930;29;20479;-49
2021/08/13 10:36:55;;;;;;;17.43;7.17;;;27.40;82.60;;;;;;4934587;29;20555;-49
2021/08/13 10:39:24;;;;;;;7.13;5.90;;;27.40;81.90;;;;;;4934756;29;20850;-50
2021/08/13 10:41:53;;;;;;;7.10;6.20;;;27.50;81.30;;;;;;4934710;29;20574;-49
2021/08/13 10:44:28;;;;;;;8.20;6.90;;;27.50;80.70;;;;;;4935348;29;20527;-50
2021/08/13 10:47:01;;;;;;;10.93;6.57;;;27.60;79.60;;;;;;4934328;29;20542;-50
2021/08/13 10:49:28;;;;;;;8.10;6.50;;;27.60;79.50;;;;;;4934451;29;20785;-50
2021/08/13 10:52:03;;;;;;;8.47;6.53;;;27.60;79.60;;;;;;4935359;29;20452;-49
2021/08/13 10:54:43;;;;;;;7.60;6.80;;;27.70;80.00;;;;;;4935554;29;20478;-50
2021/08/13 10:57:14;;;;;;;8.00;7.30;;;27.70;80.00;;;;;;4934274;29;20571;-50
2021/08/13 10:59:54;;;;;;;7.20;6.50;;;27.80;79.90;;;;;;4935559;29;20476;-49
2021/08/13 11:02:23;;;;;;;12.70;6.27;;;27.90;78.00;;;;;;4934441;29;20453;-49
2021/08/13 11:04:57;;;;;;;8.07;6.70;;;27.90;78.20;;;;;;4934145;29;20477;-50
2021/08/13 11:07:58;;;;;;;7.17;5.77;;;28.00;76.80;;;;;;4934285;29;20483;-51
2021/08/13 11:10:57;;;;;;;6.60;6.00;;;28.10;74.80;;;;;;4934622;29;20457;-49
2021/08/13 11:13:25;;;;;;;7.53;6.10;;;28.20;74.90;;;;;;4934433;29;20554;-50
2021/08/13 11:15:57;;;;;;;7.30;6.30;;;28.20;75.10;;;;;;4934618;29;20455;-50
2021/08/13 11:18:34;;;;;;;9.47;5.93;;;28.30;74.90;;;;;;4934054;29;20550;-50
2021/08/13 11:21:04;;;;;;;9.90;6.60;;;28.30;74.80;;;;;;4934189;29;20970;-51
2021/08/13 11:23:31;;;;;;;9.23;6.27;;;28.40;75.10;;;;;;4934242;29;20477;-50
2021/08/13 11:25:58;;;;;;;6.77;5.60;;;28.40;74.60;;;;;;4935507;29;20439;-52
2021/08/13 11:28:27;;;;;;;10.70;9.57;;;28.40;74.60;;;;;;4934032;29;20463;-50
2021/08/13 11:31:01;;;;;;;10.17;6.27;;;28.50;74.10;;;;;;4933676;29;20549;-50
2021/08/13 11:33:41;;;;;;;7.47;6.77;;;28.60;73.40;;;;;;4933855;29;20490;-51
2021/08/13 11:36:09;;;;;;;6.50;5.83;;;28.70;71.30;;;;;;4933530;29;20553;-51
2021/08/13 11:39:01;;;;;;;6.93;5.70;;;28.70;72.10;;;;;;4934079;29;20515;-51
2021/08/13 11:41:28;;;;;;;8.93;6.30;;;28.90;71.50;;;;;;4934224;29;20545;-50
2021/08/13 11:44:06;;;;;;;9.27;6.47;;;28.90;71.60;;;;;;4933638;29;20482;-50
2021/08/13 11:46:43;;;;;;;9.77;7.77;;;29.00;70.90;;;;;;4933313;29;20775;-49
2021/08/13 11:49:15;;;;;;;9.83;6.70;;;29.00;69.80;;;;;;4933840;29;20463;-49
2021/08/13 11:51:44;;;;;;;7.10;6.40;;;29.10;68.10;;;;;;4933576;29;20450;-50
2021/08/13 11:54:25;;;;;;;6.10;5.57;;;29.10;67.90;;;;;;4932613;29;20953;-50
2021/08/13 11:56:53;;;;;;;8.67;6.30;;;29.20;67.00;;;;;;4932757;29;20473;-50
2021/08/13 11:59:19;;;;;;;8.20;7.20;;;29.20;67.80;;;;;;4932873;29;20572;-49
2021/08/13 12:01:48;;;;;;;8.20;7.40;;;29.30;67.60;;;;;;4933572;29;20559;-50
2021/08/13 12:04:21;;;;;;;7.97;7.00;;;29.30;67.20;;;;;;4933640;29;20500;-50
2021/08/13 12:07:04;;;;;;;8.37;7.40;;;29.30;65.50;;;;;;4933060;29;20475;-50
2021/08/13 12:09:33;;;;;;;8.77;6.50;;;29.40;66.00;;;;;;4933381;29;20459;-50
2021/08/13 12:12:04;;;;;;;8.00;6.90;;;29.50;66.80;;;;;;4933233;29;20547;-50
2021/08/13 12:14:30;;;;;;;8.67;7.80;;;29.50;66.60;;;;;;4932887;29;21096;-50
2021/08/13 12:16:58;;;;;;;8.50;7.63;;;29.60;66.30;;;;;;4932469;29;20459;-50
2021/08/13 12:19:26;;;;;;;12.67;7.77;;;29.60;64.70;;;;;;4933518;29;20570;-51
2021/08/13 12:21:55;;;;;;;8.63;7.80;;;29.70;64.30;;;;;;4932840;29;20484;-49
2021/08/13 12:24:35;;;;;;;9.20;7.57;;;29.70;64.40;;;;;;4933987;29;20871;-49
2021/08/13 12:27:07;;;;;;;9.93;7.87;;;29.90;64.20;;;;;;4932437;29;20507;-49
2021/08/13 12:29:36;;;;;;;9.47;7.73;;;29.90;64.40;;;;;;4932696;29;20552;-51
2021/08/13 12:32:05;;;;;;;9.63;8.63;;;30.00;64.10;;;;;;4934003;29;20450;-50
2021/08/13 12:34:36;;;;;;;7.63;6.43;;;30.20;62.80;;;;;;4932711;29;20535;-50
2021/08/13 12:37:06;;;;;;;14.27;8.87;;;30.30;62.20;;;;;;4932292;29;20941;-50
2021/08/13 12:39:38;;;;;;;9.23;7.90;;;30.40;62.80;;;;;;4931958;29;20498;-51
2021/08/13 12:42:05;;;;;;;8.50;7.80;;;30.50;63.20;;;;;;4933770;29;20571;-51
2021/08/13 12:44:34;;;;;;;8.53;7.00;;;30.50;63.20;;;;;;4931929;29;20479;-51
2021/08/13 12:47:02;;;;;;;8.60;7.80;;;30.60;62.90;;;;;;4931885;29;20458;-50
2021/08/13 12:49:29;;;;;;;11.00;7.23;;;30.60;62.20;;;;;;4932149;29;21049;-52
2021/08/13 12:52:11;;;;;;;9.17;6.80;;;30.60;62.20;;;;;;4932133;29;20956;-51
2021/08/13 12:54:39;;;;;;;11.17;7.60;;;30.60;61.90;;;;;;4933645;29;20490;-51